Sharpstown, Texas
Current Conditions -  °F | °C
As of 4:55 AM on Wednesday 22 Oct 2014 (Local Time) from KMCJ Reporting Station
Clear Clear  
Wind Chill: 66°   Ceiling: Unl
Heat Index: 66°   Visibility: 10mi
Dew Point: 61°   Wind: 8mph
Humidity: 83%   Direction: 40°NE
Pressure: 29.99"   Gusts: NA
Location:  29.7004°N, 95.5366°W
Report Text: KMCJ 220955Z AUTO 04007KT 10SM CLR 19/16 A2999 RMK AO1
Loading
Personal Weather Stations






























Interactive Weather Map
Tropical Storm Tracking
New forecast layout! Learn more

10-Day Weather Forecast

Advertisements
Track Severe Weather on mobile